createdAt,value
2019-03-08T00:00:25.110Z,57.00
2019-03-08T00:00:56.365Z,57.00
2019-03-08T00:01:27.565Z,57.10
2019-03-08T00:01:58.812Z,57.10
2019-03-08T00:02:30.004Z,57.10
2019-03-08T00:03:01.185Z,57.10
2019-03-08T00:03:32.362Z,57.10
2019-03-08T00:04:03.692Z,57.10
2019-03-08T00:04:34.954Z,57.10
2019-03-08T00:05:06.138Z,57.10
2019-03-08T00:05:37.978Z,57.10
2019-03-08T00:06:09.150Z,57.00
2019-03-08T00:06:40.647Z,57.10
2019-03-08T00:07:11.898Z,57.00
2019-03-08T00:07:43.077Z,57.10
2019-03-08T00:08:14.538Z,57.00
2019-03-08T00:08:45.710Z,57.10
2019-03-08T00:09:16.910Z,57.10
2019-03-08T00:09:48.157Z,57.10
2019-03-08T00:10:19.414Z,57.10
2019-03-08T00:10:50.672Z,57.20
2019-03-08T00:11:22.245Z,57.10
2019-03-08T00:11:53.490Z,57.10
2019-03-08T00:12:25.128Z,57.20
2019-03-08T00:12:56.660Z,57.10
2019-03-08T00:13:27.837Z,57.20
2019-03-08T00:13:59.323Z,57.20
2019-03-08T00:14:30.503Z,57.10
2019-03-08T00:15:02.001Z,57.10
2019-03-08T00:15:33.171Z,57.10
2019-03-08T00:16:04.667Z,57.10
2019-03-08T00:16:35.865Z,57.00
2019-03-08T00:17:07.644Z,57.10
2019-03-08T00:17:38.820Z,57.00
2019-03-08T00:18:10.276Z,57.00
2019-03-08T00:18:41.448Z,57.60
2019-03-08T00:19:12.667Z,57.00
2019-03-08T00:19:43.844Z,57.20
2019-03-08T00:20:15.024Z,56.90
2019-03-08T00:20:46.200Z,56.90
2019-03-08T00:21:17.825Z,57.00
2019-03-08T00:21:49.349Z,56.90
2019-03-08T00:22:20.527Z,57.00
2019-03-08T00:22:51.781Z,57.00
2019-03-08T00:23:23.253Z,56.90
2019-03-08T00:23:54.704Z,57.00
2019-03-08T00:24:25.920Z,57.20
2019-03-08T00:24:57.165Z,57.00
2019-03-08T00:25:28.342Z,56.90
2019-03-08T00:25:59.518Z,57.00
2019-03-08T00:26:30.694Z,57.00
2019-03-08T00:27:01.866Z,57.00
2019-03-08T00:27:33.045Z,57.00
2019-03-08T00:28:04.265Z,56.90
2019-03-08T00:28:35.497Z,57.00
2019-03-08T00:29:06.725Z,56.90
2019-03-08T00:29:38.310Z,57.00
2019-03-08T00:30:09.567Z,56.90
2019-03-08T00:30:40.844Z,56.90
2019-03-08T00:31:12.344Z,56.90
2019-03-08T00:31:43.518Z,56.90
2019-03-08T00:32:14.807Z,56.90
2019-03-08T00:32:45.977Z,56.90
2019-03-08T00:33:17.331Z,56.90
2019-03-08T00:33:48.519Z,56.90
2019-03-08T00:34:19.704Z,56.90
2019-03-08T00:34:51.409Z,56.80
2019-03-08T00:35:22.840Z,56.80
2019-03-08T00:35:54.059Z,56.90
2019-03-08T00:36:25.311Z,56.90
2019-03-08T00:36:56.739Z,56.80
2019-03-08T00:37:27.915Z,56.80
2019-03-08T00:37:59.126Z,56.90
2019-03-08T00:38:30.304Z,56.80
2019-03-08T00:39:01.481Z,56.90
2019-03-08T00:39:32.675Z,57.00
2019-03-08T00:40:03.924Z,56.80
2019-03-08T00:40:35.120Z,56.80
2019-03-08T00:41:06.476Z,56.80
2019-03-08T00:41:37.648Z,56.80
2019-03-08T00:42:08.848Z,56.80
2019-03-08T00:42:40.045Z,56.80
2019-03-08T00:43:11.284Z,56.90
2019-03-08T00:43:42.468Z,56.90
2019-03-08T00:44:13.673Z,57.60
2019-03-08T00:44:44.912Z,56.90
2019-03-08T00:45:16.113Z,56.70
2019-03-08T00:45:47.324Z,56.90
2019-03-08T00:46:18.552Z,56.90
2019-03-08T00:46:50.023Z,56.80
2019-03-08T00:47:21.208Z,56.80
2019-03-08T00:47:52.390Z,56.90
2019-03-08T00:48:23.585Z,56.80
2019-03-08T00:48:54.822Z,56.80
2019-03-08T00:49:26.024Z,56.80
2019-03-08T00:49:57.255Z,56.70
2019-03-08T00:50:28.442Z,56.80
2019-03-08T00:50:59.631Z,56.70
2019-03-08T00:51:30.878Z,56.80
2019-03-08T00:52:02.058Z,56.60
2019-03-08T00:52:33.506Z,56.60
2019-03-08T00:53:04.678Z,56.70
2019-03-08T00:53:35.855Z,56.70
2019-03-08T00:54:07.387Z,56.70
2019-03-08T00:54:38.559Z,56.70
2019-03-08T00:55:09.867Z,56.70
2019-03-08T00:55:41.047Z,56.70
2019-03-08T00:56:12.244Z,57.30
2019-03-08T00:56:43.478Z,56.70
2019-03-08T00:57:14.987Z,57.30
2019-03-08T00:57:46.571Z,56.80
2019-03-08T00:58:17.792Z,56.70
2019-03-08T00:58:48.976Z,56.80
2019-03-08T00:59:20.523Z,56.70
2019-03-08T00:59:51.972Z,56.70
2019-03-08T01:00:23.179Z,56.70
2019-03-08T01:00:54.362Z,56.70
2019-03-08T01:01:25.612Z,56.90
2019-03-08T01:01:56.788Z,56.80
2019-03-08T01:02:27.968Z,56.80
2019-03-08T01:02:59.148Z,56.80
2019-03-08T01:03:30.324Z,56.80
2019-03-08T01:04:01.501Z,56.90
2019-03-08T01:04:32.696Z,56.80
2019-03-08T01:05:04.316Z,56.80
2019-03-08T01:05:35.520Z,56.70
2019-03-08T01:06:06.697Z,56.80
2019-03-08T01:06:37.877Z,56.80
2019-03-08T01:07:09.049Z,56.80
2019-03-08T01:07:40.281Z,56.80
2019-03-08T01:08:11.457Z,56.80
2019-03-08T01:08:42.635Z,57.40
2019-03-08T01:09:13.830Z,57.50
2019-03-08T01:09:45.011Z,56.80
2019-03-08T01:10:16.194Z,56.90
2019-03-08T01:10:47.682Z,56.80
2019-03-08T01:11:19.004Z,56.90
2019-03-08T01:11:50.263Z,56.90
2019-03-08T01:12:21.450Z,56.90
2019-03-08T01:12:52.642Z,56.80
2019-03-08T01:13:23.834Z,56.80
2019-03-08T01:13:55.347Z,56.90
2019-03-08T01:14:26.911Z,56.80
2019-03-08T01:14:58.178Z,56.80
2019-03-08T01:15:29.423Z,56.90
2019-03-08T01:16:00.594Z,56.70
2019-03-08T01:16:32.075Z,56.70
2019-03-08T01:17:03.319Z,56.70
2019-03-08T01:17:34.497Z,56.70
2019-03-08T01:18:05.772Z,56.70
2019-03-08T01:18:37.011Z,56.70
2019-03-08T01:19:08.188Z,56.60
2019-03-08T01:19:39.439Z,56.60
2019-03-08T01:20:10.948Z,57.30
2019-03-08T01:20:42.119Z,56.60
2019-03-08T01:21:13.297Z,56.60
2019-03-08T01:21:44.551Z,56.60
2019-03-08T01:22:15.998Z,56.70
2019-03-08T01:22:47.577Z,56.70
2019-03-08T01:23:18.820Z,56.60
2019-03-08T01:23:49.992Z,56.70
2019-03-08T01:24:21.169Z,56.60
2019-03-08T01:24:52.345Z,56.60
2019-03-08T01:25:23.529Z,56.70
2019-03-08T01:25:54.701Z,56.60
2019-03-08T01:26:25.886Z,56.60
2019-03-08T01:26:57.048Z,56.70
2019-03-08T01:27:28.232Z,56.60
2019-03-08T01:27:59.699Z,56.70
2019-03-08T01:28:30.948Z,56.70
2019-03-08T01:29:02.125Z,56.80
2019-03-08T01:29:33.363Z,56.70
2019-03-08T01:30:05.000Z,56.80
2019-03-08T01:30:36.278Z,56.70
2019-03-08T01:31:07.452Z,56.80
2019-03-08T01:31:38.697Z,56.70
2019-03-08T01:32:09.889Z,56.70
2019-03-08T01:32:41.138Z,56.70
2019-03-08T01:33:12.711Z,56.70
2019-03-08T01:33:43.946Z,56.80
2019-03-08T01:34:15.134Z,56.80
2019-03-08T01:34:46.624Z,56.80
2019-03-08T01:35:19.728Z,56.80
2019-03-08T01:35:50.795Z,56.90
2019-03-08T01:36:22.323Z,56.80
2019-03-08T01:36:53.589Z,56.80
2019-03-08T01:37:24.845Z,56.80
2019-03-08T01:37:56.071Z,56.70
2019-03-08T01:38:27.248Z,56.70
2019-03-08T01:38:58.423Z,56.70
2019-03-08T01:39:29.636Z,56.70
2019-03-08T01:40:00.879Z,56.80
2019-03-08T01:40:32.712Z,56.80
2019-03-08T01:41:03.891Z,56.80
2019-03-08T01:41:35.300Z,56.70
2019-03-08T01:42:06.492Z,56.70
2019-03-08T01:42:37.668Z,56.70
2019-03-08T01:43:09.164Z,56.80
2019-03-08T01:43:40.401Z,56.70
2019-03-08T01:44:11.576Z,56.70
2019-03-08T01:44:43.070Z,56.80
2019-03-08T01:45:14.249Z,56.80
2019-03-08T01:45:45.424Z,56.80
2019-03-08T01:46:16.602Z,56.70
2019-03-08T01:46:47.820Z,56.80
2019-03-08T01:47:19.349Z,56.70
2019-03-08T01:47:50.527Z,56.70
2019-03-08T01:48:21.737Z,56.60
2019-03-08T01:48:53.259Z,56.70
2019-03-08T01:49:24.445Z,56.60
2019-03-08T01:49:55.695Z,56.60
2019-03-08T01:50:27.269Z,56.70
2019-03-08T01:50:58.450Z,56.60
2019-03-08T01:51:29.617Z,56.60
2019-03-08T01:52:00.805Z,56.60
2019-03-08T01:52:32.060Z,56.60
2019-03-08T01:53:03.611Z,56.60
2019-03-08T01:53:34.862Z,56.60
2019-03-08T01:54:06.058Z,56.60
2019-03-08T01:54:37.646Z,56.60
2019-03-08T01:55:08.818Z,56.60
2019-03-08T01:55:40.038Z,56.60
2019-03-08T01:56:11.271Z,56.60
2019-03-08T01:56:42.963Z,56.50
2019-03-08T01:57:14.304Z,56.50
2019-03-08T01:57:45.483Z,56.60
2019-03-08T01:58:16.658Z,56.60
2019-03-08T01:58:48.191Z,56.60
2019-03-08T01:59:19.751Z,56.60
2019-03-08T01:59:51.275Z,56.60
2019-03-08T02:00:22.555Z,56.50
2019-03-08T02:00:53.730Z,56.50
2019-03-08T02:01:25.368Z,56.40
2019-03-08T02:01:56.544Z,56.40
2019-03-08T02:02:28.040Z,56.50
2019-03-08T02:02:59.216Z,56.50
2019-03-08T02:03:30.389Z,56.50
2019-03-08T02:04:01.741Z,56.60
2019-03-08T02:04:33.005Z,56.60
2019-03-08T02:05:04.283Z,56.50
2019-03-08T02:05:35.742Z,56.50
2019-03-08T02:06:06.918Z,56.50
2019-03-08T02:06:38.091Z,56.50
2019-03-08T02:07:09.264Z,56.50
2019-03-08T02:07:40.568Z,56.60
2019-03-08T02:08:12.106Z,56.50
2019-03-08T02:08:43.339Z,56.50
2019-03-08T02:09:14.878Z,56.50
2019-03-08T02:09:46.061Z,56.50
2019-03-08T02:10:17.296Z,56.50
2019-03-08T02:10:48.522Z,56.50
2019-03-08T02:11:19.873Z,56.50
2019-03-08T02:11:51.046Z,56.50
2019-03-08T02:12:22.297Z,56.50
2019-03-08T02:12:53.481Z,56.50
2019-03-08T02:13:24.687Z,56.60
2019-03-08T02:13:55.946Z,56.60
2019-03-08T02:14:27.110Z,56.60
2019-03-08T02:14:58.283Z,56.60
2019-03-08T02:15:29.459Z,56.50
2019-03-08T02:16:00.734Z,56.50
2019-03-08T02:16:32.086Z,56.40
2019-03-08T02:17:03.467Z,56.40
2019-03-08T02:17:35.007Z,56.40
2019-03-08T02:18:06.188Z,56.50
2019-03-08T02:18:37.362Z,56.50
2019-03-08T02:19:08.543Z,56.50
2019-03-08T02:19:39.719Z,56.50
2019-03-08T02:20:11.292Z,56.40
2019-03-08T02:20:42.748Z,56.50
2019-03-08T02:21:14.039Z,56.40
2019-03-08T02:21:45.219Z,56.50
2019-03-08T02:22:16.391Z,56.40
2019-03-08T02:22:47.689Z,56.50
2019-03-08T02:23:18.892Z,56.50
2019-03-08T02:23:50.064Z,56.50
2019-03-08T02:24:21.540Z,56.50
2019-03-08T02:24:52.711Z,56.40
2019-03-08T02:25:23.911Z,56.50
2019-03-08T02:25:55.186Z,56.40
2019-03-08T02:26:26.805Z,56.50
2019-03-08T02:26:57.988Z,56.50
2019-03-08T02:27:29.164Z,56.50
2019-03-08T02:28:00.790Z,56.50
2019-03-08T02:28:32.037Z,56.50
2019-03-08T02:29:03.234Z,56.50
2019-03-08T02:29:35.089Z,56.50
2019-03-08T02:30:06.651Z,56.50
2019-03-08T02:30:37.906Z,56.50
2019-03-08T02:31:09.153Z,56.50
2019-03-08T02:31:40.438Z,56.50
2019-03-08T02:32:11.993Z,56.50
2019-03-08T02:32:43.251Z,56.50
2019-03-08T02:33:14.455Z,56.50
2019-03-08T02:33:45.633Z,56.50
2019-03-08T02:34:16.805Z,56.50
2019-03-08T02:34:47.986Z,56.50
2019-03-08T02:35:19.458Z,56.40
2019-03-08T02:35:50.654Z,56.40
2019-03-08T02:36:21.845Z,56.50
2019-03-08T02:36:53.079Z,56.40
2019-03-08T02:37:24.249Z,56.50
2019-03-08T02:37:55.430Z,56.40
2019-03-08T02:38:26.607Z,56.40
2019-03-08T02:38:57.818Z,56.40
2019-03-08T02:39:28.991Z,56.40
2019-03-08T02:40:00.266Z,56.40
2019-03-08T02:40:31.529Z,56.50
2019-03-08T02:41:03.224Z,56.40
2019-03-08T02:41:34.508Z,56.40
2019-03-08T02:42:05.751Z,56.50
2019-03-08T02:42:36.947Z,56.50
2019-03-08T02:43:08.124Z,56.50
2019-03-08T02:43:39.300Z,56.50
2019-03-08T02:44:10.475Z,56.80
2019-03-08T02:44:41.653Z,56.40
2019-03-08T02:45:13.038Z,56.40
2019-03-08T02:45:44.518Z,56.50
2019-03-08T02:46:15.764Z,56.40
2019-03-08T02:46:47.216Z,56.40
2019-03-08T02:47:18.420Z,56.50
2019-03-08T02:47:49.608Z,56.40
2019-03-08T02:48:20.789Z,56.40
2019-03-08T02:48:51.968Z,56.40
2019-03-08T02:49:23.145Z,56.30
2019-03-08T02:49:54.425Z,56.30
2019-03-08T02:50:25.614Z,56.30
2019-03-08T02:50:56.792Z,56.30
2019-03-08T02:51:27.969Z,56.40
2019-03-08T02:51:59.148Z,56.30
2019-03-08T02:52:30.369Z,56.40
2019-03-08T02:53:01.620Z,56.40
2019-03-08T02:53:33.173Z,56.30
2019-03-08T02:54:04.353Z,56.40
2019-03-08T02:54:35.537Z,56.30
2019-03-08T02:55:06.710Z,56.30
2019-03-08T02:55:37.891Z,56.30
2019-03-08T02:56:09.066Z,56.30
2019-03-08T02:56:40.290Z,56.30
2019-03-08T02:57:11.488Z,56.30
2019-03-08T02:57:42.654Z,56.30
2019-03-08T02:58:13.959Z,56.30
2019-03-08T02:58:45.188Z,56.30
2019-03-08T02:59:16.830Z,56.20
2019-03-08T02:59:49.046Z,56.20
2019-03-08T03:00:20.230Z,56.10
2019-03-08T03:00:51.444Z,56.10
2019-03-08T03:01:22.619Z,56.50
2019-03-08T03:01:53.798Z,56.10
2019-03-08T03:02:25.079Z,56.10
2019-03-08T03:02:56.305Z,56.10
2019-03-08T03:03:27.479Z,56.20
2019-03-08T03:03:58.655Z,56.30
2019-03-08T03:04:29.831Z,56.20
2019-03-08T03:05:01.192Z,56.30
2019-03-08T03:05:32.459Z,56.20
2019-03-08T03:06:03.676Z,56.20
2019-03-08T03:06:34.855Z,56.30
2019-03-08T03:07:06.032Z,56.20
2019-03-08T03:07:37.613Z,56.20
2019-03-08T03:08:08.801Z,56.20
2019-03-08T03:08:39.974Z,56.20
2019-03-08T03:09:11.148Z,56.20
2019-03-08T03:09:42.348Z,56.20
2019-03-08T03:10:13.534Z,56.20
2019-03-08T03:10:44.792Z,56.20
2019-03-08T03:11:16.037Z,56.20
2019-03-08T03:11:47.593Z,56.20
2019-03-08T03:12:18.765Z,56.70
2019-03-08T03:12:49.941Z,56.20
2019-03-08T03:13:21.123Z,56.30
2019-03-08T03:13:52.401Z,56.20
2019-03-08T03:14:23.596Z,56.20
2019-03-08T03:14:54.773Z,56.20
2019-03-08T03:15:25.959Z,56.10
2019-03-08T03:15:57.211Z,56.10
2019-03-08T03:16:28.389Z,56.10
2019-03-08T03:16:59.561Z,56.10
2019-03-08T03:17:31.017Z,56.00
2019-03-08T03:18:02.277Z,56.00
2019-03-08T03:18:33.482Z,56.00
2019-03-08T03:19:04.657Z,56.00
2019-03-08T03:19:35.841Z,56.00
2019-03-08T03:20:07.306Z,56.10
2019-03-08T03:20:38.491Z,56.10
2019-03-08T03:21:09.668Z,56.10
2019-03-08T03:21:40.939Z,56.60
2019-03-08T03:22:12.123Z,56.10
2019-03-08T03:22:43.302Z,56.10
2019-03-08T03:23:15.191Z,56.10
2019-03-08T03:23:46.398Z,56.10
2019-03-08T03:24:17.884Z,56.10
2019-03-08T03:24:49.063Z,56.10
2019-03-08T03:25:20.268Z,56.10
2019-03-08T03:25:51.443Z,56.10
2019-03-08T03:26:22.616Z,56.10
2019-03-08T03:26:54.151Z,56.10
2019-03-08T03:27:25.356Z,56.10
2019-03-08T03:27:56.535Z,56.00
2019-03-08T03:28:27.711Z,56.00
2019-03-08T03:28:59.264Z,55.90
2019-03-08T03:29:30.444Z,56.00
2019-03-08T03:30:01.697Z,56.00
2019-03-08T03:30:32.937Z,56.00
2019-03-08T03:31:04.397Z,56.10
2019-03-08T03:31:35.652Z,56.10
2019-03-08T03:32:06.920Z,56.20
2019-03-08T03:32:38.127Z,56.10
2019-03-08T03:33:09.393Z,56.10
2019-03-08T03:33:40.608Z,56.10
2019-03-08T03:34:12.097Z,56.10
2019-03-08T03:34:43.553Z,56.10
2019-03-08T03:35:14.733Z,56.10
2019-03-08T03:35:45.910Z,56.10
2019-03-08T03:36:17.162Z,56.10
2019-03-08T03:36:48.446Z,56.20
2019-03-08T03:37:19.621Z,56.20
2019-03-08T03:37:50.833Z,56.30
2019-03-08T03:38:22.087Z,56.20
2019-03-08T03:38:53.334Z,56.20
2019-03-08T03:39:24.509Z,56.20
2019-03-08T03:39:55.682Z,56.20
2019-03-08T03:40:27.030Z,56.30
2019-03-08T03:40:58.214Z,56.20
2019-03-08T03:41:29.393Z,56.20
2019-03-08T03:42:00.638Z,56.20
2019-03-08T03:42:31.814Z,56.20
2019-03-08T03:43:03.204Z,56.20
2019-03-08T03:43:34.461Z,56.20
2019-03-08T03:44:05.704Z,56.20
2019-03-08T03:44:36.961Z,56.10
2019-03-08T03:45:08.136Z,56.10
2019-03-08T03:45:39.311Z,56.10
2019-03-08T03:46:10.551Z,56.20
2019-03-08T03:46:41.823Z,56.20
2019-03-08T03:47:13.171Z,56.10
2019-03-08T03:47:44.364Z,56.10
2019-03-08T03:48:15.603Z,56.10
2019-03-08T03:48:46.775Z,56.10
2019-03-08T03:49:17.956Z,56.10
2019-03-08T03:49:49.505Z,56.70
2019-03-08T03:50:20.688Z,56.20
2019-03-08T03:50:51.860Z,56.10
2019-03-08T03:51:23.325Z,56.20
2019-03-08T03:51:54.524Z,56.10
2019-03-08T03:52:26.045Z,56.10
2019-03-08T03:52:57.693Z,56.10
2019-03-08T03:53:28.945Z,56.10
2019-03-08T03:54:00.457Z,56.20
2019-03-08T03:54:32.004Z,56.20
2019-03-08T03:55:03.181Z,56.20
2019-03-08T03:55:34.365Z,56.20
2019-03-08T03:56:05.554Z,56.20
2019-03-08T03:56:36.829Z,56.20
2019-03-08T03:57:08.371Z,56.20
2019-03-08T03:57:39.553Z,56.20
2019-03-08T03:58:10.750Z,56.20
2019-03-08T03:58:42.206Z,56.20
2019-03-08T03:59:13.385Z,56.20
2019-03-08T03:59:44.557Z,56.20
2019-03-08T04:00:15.733Z,56.30
2019-03-08T04:00:47.045Z,56.20
2019-03-08T04:01:18.274Z,56.90
2019-03-08T04:01:49.453Z,56.20
2019-03-08T04:02:22.131Z,56.20
2019-03-08T04:02:53.978Z,56.20
2019-03-08T04:03:25.310Z,56.20
2019-03-08T04:03:56.498Z,56.20
2019-03-08T04:04:27.666Z,56.80
2019-03-08T04:04:59.201Z,56.20
2019-03-08T04:05:30.654Z,56.20
2019-03-08T04:06:02.179Z,56.20
2019-03-08T04:06:33.386Z,56.20
2019-03-08T04:07:04.561Z,56.20
2019-03-08T04:07:35.747Z,56.90
2019-03-08T04:08:07.213Z,56.20
2019-03-08T04:08:38.479Z,56.30
2019-03-08T04:09:09.659Z,56.30
2019-03-08T04:09:40.827Z,56.30
2019-03-08T04:10:12.027Z,56.30
2019-03-08T04:10:43.224Z,56.30
2019-03-08T04:11:15.031Z,56.30
2019-03-08T04:11:46.204Z,56.30
2019-03-08T04:12:17.408Z,56.30
2019-03-08T04:12:48.632Z,56.30
2019-03-08T04:13:19.816Z,56.70
2019-03-08T04:13:51.020Z,56.20
2019-03-08T04:14:22.272Z,56.20
2019-03-08T04:14:53.744Z,56.10
2019-03-08T04:15:24.961Z,56.80
2019-03-08T04:15:56.189Z,56.80
2019-03-08T04:16:27.673Z,56.20
2019-03-08T04:16:59.152Z,56.30
2019-03-08T04:17:30.348Z,56.20
2019-03-08T04:18:01.534Z,56.20
2019-03-08T04:18:33.101Z,56.20
2019-03-08T04:19:04.275Z,56.20
2019-03-08T04:19:35.473Z,56.20
2019-03-08T04:20:07.098Z,56.20
2019-03-08T04:20:38.662Z,56.30
2019-03-08T04:21:10.165Z,56.20
2019-03-08T04:21:41.338Z,56.30
2019-03-08T04:22:12.526Z,56.20
2019-03-08T04:22:43.982Z,56.20
2019-03-08T04:23:15.238Z,56.20
2019-03-08T04:23:46.492Z,56.30
2019-03-08T04:24:17.690Z,56.10
2019-03-08T04:24:48.902Z,56.10
2019-03-08T04:25:20.090Z,56.10
2019-03-08T04:25:51.351Z,56.20
2019-03-08T04:26:22.527Z,56.20
2019-03-08T04:26:53.699Z,56.20
2019-03-08T04:27:24.923Z,56.10
2019-03-08T04:27:56.210Z,56.20
2019-03-08T04:28:27.388Z,56.10
2019-03-08T04:28:58.563Z,56.10
2019-03-08T04:29:30.110Z,56.00
2019-03-08T04:30:01.285Z,56.10
2019-03-08T04:30:32.635Z,56.00
2019-03-08T04:31:03.867Z,56.10
2019-03-08T04:31:35.069Z,56.00
2019-03-08T04:32:06.295Z,56.00
2019-03-08T04:32:37.484Z,56.10
2019-03-08T04:33:08.732Z,56.10
2019-03-08T04:33:39.932Z,56.10
2019-03-08T04:34:11.164Z,56.10
2019-03-08T04:34:42.622Z,56.10
2019-03-08T04:35:14.176Z,56.20
2019-03-08T04:35:45.378Z,56.10
2019-03-08T04:36:16.557Z,56.10
2019-03-08T04:36:47.875Z,56.20
2019-03-08T04:37:19.050Z,56.20
2019-03-08T04:37:50.249Z,56.20
2019-03-08T04:38:21.437Z,56.20
2019-03-08T04:38:52.697Z,56.20
2019-03-08T04:39:23.904Z,56.20
2019-03-08T04:39:56.805Z,56.20
2019-03-08T04:40:28.037Z,56.30
2019-03-08T04:40:59.590Z,56.20
2019-03-08T04:41:30.773Z,56.20
2019-03-08T04:42:01.964Z,56.10
2019-03-08T04:42:33.155Z,56.20
2019-03-08T04:43:04.409Z,56.10
2019-03-08T04:43:35.931Z,55.70
2019-03-08T04:44:07.106Z,56.10
2019-03-08T04:44:38.307Z,56.00
2019-03-08T04:45:09.532Z,56.10
2019-03-08T04:45:41.056Z,56.10
2019-03-08T04:46:12.230Z,56.10
2019-03-08T04:46:43.726Z,56.00
2019-03-08T04:47:14.966Z,56.00
2019-03-08T04:47:46.248Z,56.00
2019-03-08T04:48:17.412Z,56.10
2019-03-08T04:48:48.965Z,56.10
2019-03-08T04:49:20.141Z,56.10
2019-03-08T04:49:51.307Z,56.10
2019-03-08T04:50:22.479Z,56.10
2019-03-08T04:50:53.997Z,56.20
2019-03-08T04:51:25.221Z,56.10
2019-03-08T04:51:56.425Z,56.10
2019-03-08T04:52:28.321Z,56.20
2019-03-08T04:52:59.575Z,56.10
2019-03-08T04:53:30.828Z,56.30
2019-03-08T04:54:01.998Z,56.20
2019-03-08T04:54:33.171Z,56.20
2019-03-08T04:55:04.677Z,56.30
2019-03-08T04:55:35.856Z,56.20
2019-03-08T04:56:07.032Z,56.30
2019-03-08T04:56:38.242Z,56.20
2019-03-08T04:57:09.416Z,56.30
2019-03-08T04:57:40.600Z,56.20
2019-03-08T04:58:11.789Z,56.20
2019-03-08T04:58:42.971Z,56.30
2019-03-08T04:59:14.429Z,56.20
2019-03-08T04:59:45.605Z,56.20
2019-03-08T05:00:16.799Z,56.20
2019-03-08T05:00:48.037Z,56.10
2019-03-08T05:01:19.214Z,56.10
2019-03-08T05:01:50.394Z,56.00
2019-03-08T05:02:21.574Z,56.10
2019-03-08T05:02:52.750Z,56.10
2019-03-08T05:03:23.933Z,56.10
2019-03-08T05:03:55.110Z,56.10
2019-03-08T05:04:26.284Z,56.10
2019-03-08T05:04:57.634Z,56.20
2019-03-08T05:05:29.122Z,56.20
2019-03-08T05:06:00.862Z,56.80
2019-03-08T05:06:32.174Z,56.20
2019-03-08T05:07:03.347Z,56.20
2019-03-08T05:07:34.526Z,56.20
2019-03-08T05:08:05.703Z,56.10
2019-03-08T05:08:37.226Z,56.10
2019-03-08T05:09:08.426Z,56.10
2019-03-08T05:09:39.681Z,56.20
2019-03-08T05:10:10.931Z,56.10
2019-03-08T05:10:42.382Z,56.00
2019-03-08T05:11:13.602Z,56.10
2019-03-08T05:11:45.140Z,56.10
2019-03-08T05:12:16.671Z,56.10
2019-03-08T05:12:47.940Z,56.10
2019-03-08T05:13:19.447Z,56.00
2019-03-08T05:13:50.635Z,56.00
2019-03-08T05:14:21.815Z,56.00
2019-03-08T05:14:53.374Z,56.10
2019-03-08T05:15:24.548Z,56.00
2019-03-08T05:15:55.772Z,56.00
2019-03-08T05:16:27.232Z,56.00
2019-03-08T05:16:58.408Z,56.00
2019-03-08T05:17:29.659Z,56.10
2019-03-08T05:18:00.902Z,56.10
2019-03-08T05:18:33.022Z,56.10
2019-03-08T05:19:04.292Z,56.10
2019-03-08T05:19:35.460Z,56.10
2019-03-08T05:20:06.636Z,56.10
2019-03-08T05:20:37.817Z,56.10
2019-03-08T05:21:09.069Z,56.00
2019-03-08T05:21:40.264Z,56.00
2019-03-08T05:22:11.713Z,56.00
2019-03-08T05:22:42.893Z,56.00
2019-03-08T05:23:14.068Z,56.00
2019-03-08T05:23:45.309Z,56.00
2019-03-08T05:24:16.489Z,56.00
2019-03-08T05:24:47.769Z,56.10
2019-03-08T05:25:18.973Z,56.00
2019-03-08T05:25:50.557Z,56.10
2019-03-08T05:26:21.739Z,56.00
2019-03-08T05:26:52.917Z,56.10
2019-03-08T05:27:24.106Z,56.10
2019-03-08T05:27:55.598Z,56.10
2019-03-08T05:28:26.775Z,56.10
2019-03-08T05:28:57.971Z,56.10
2019-03-08T05:29:29.146Z,56.10
2019-03-08T05:30:00.470Z,56.10
2019-03-08T05:30:31.722Z,56.10
2019-03-08T05:31:02.934Z,56.10
2019-03-08T05:31:34.107Z,56.30
2019-03-08T05:32:05.652Z,56.10
2019-03-08T05:32:36.834Z,56.20
2019-03-08T05:33:08.011Z,56.10
2019-03-08T05:33:39.551Z,56.10
2019-03-08T05:34:10.736Z,56.10
2019-03-08T05:34:42.527Z,56.10
2019-03-08T05:35:13.703Z,56.10
2019-03-08T05:35:44.923Z,56.10
2019-03-08T05:36:16.098Z,56.20
2019-03-08T05:36:47.347Z,56.20
2019-03-08T05:37:18.523Z,56.20
2019-03-08T05:37:50.024Z,56.20
2019-03-08T05:38:21.579Z,56.10
2019-03-08T05:38:52.811Z,56.10
2019-03-08T05:39:24.040Z,56.10
2019-03-08T05:39:55.523Z,56.10
2019-03-08T05:40:26.969Z,56.00
2019-03-08T05:40:58.569Z,56.10
2019-03-08T05:41:29.748Z,56.10
2019-03-08T05:42:00.929Z,56.00
2019-03-08T05:42:32.101Z,56.30
2019-03-08T05:43:04.088Z,56.10
2019-03-08T05:43:35.444Z,56.10
2019-03-08T05:44:06.696Z,56.10
2019-03-08T05:44:37.907Z,56.10
2019-03-08T05:45:09.077Z,56.10
2019-03-08T05:45:40.693Z,56.10
2019-03-08T05:46:12.533Z,56.00
2019-03-08T05:46:43.718Z,56.00
2019-03-08T05:47:14.904Z,56.00
2019-03-08T05:47:46.085Z,56.00
2019-03-08T05:48:17.262Z,55.90
2019-03-08T05:48:48.518Z,56.00
2019-03-08T05:49:19.686Z,56.00
2019-03-08T05:49:50.911Z,56.00
2019-03-08T05:50:22.358Z,56.00
2019-03-08T05:50:53.522Z,56.00
2019-03-08T05:51:24.706Z,56.00
2019-03-08T05:51:56.159Z,55.90
2019-03-08T05:52:27.407Z,55.90
2019-03-08T05:52:58.653Z,56.00
2019-03-08T05:53:29.823Z,56.00
2019-03-08T05:54:00.994Z,56.00
2019-03-08T05:54:32.432Z,56.00
2019-03-08T05:55:03.643Z,56.00
2019-03-08T05:55:34.819Z,56.00
2019-03-08T05:56:06.007Z,56.10
2019-03-08T05:56:37.259Z,56.00
2019-03-08T05:57:08.443Z,56.00
2019-03-08T05:57:40.220Z,56.10
2019-03-08T05:58:11.407Z,56.10
2019-03-08T05:58:42.583Z,56.10
2019-03-08T05:59:13.759Z,56.10
2019-03-08T05:59:45.524Z,56.10
2019-03-08T06:00:16.908Z,56.00
2019-03-08T06:00:48.140Z,56.10
2019-03-08T06:01:19.312Z,56.10
2019-03-08T06:01:50.492Z,56.10
2019-03-08T06:02:21.699Z,56.10
2019-03-08T06:02:52.961Z,56.20
2019-03-08T06:03:24.310Z,56.10
2019-03-08T06:03:55.497Z,56.10
2019-03-08T06:04:26.664Z,56.10
2019-03-08T06:04:57.849Z,56.10
2019-03-08T06:05:29.040Z,56.20
2019-03-08T06:06:00.285Z,56.20
2019-03-08T06:06:31.465Z,56.30
2019-03-08T06:07:02.653Z,56.20
2019-03-08T06:07:33.829Z,56.30
2019-03-08T06:08:05.008Z,56.30
2019-03-08T06:08:36.522Z,56.30
2019-03-08T06:09:07.981Z,56.20
2019-03-08T06:09:39.157Z,56.20
2019-03-08T06:10:10.382Z,56.20
2019-03-08T06:10:41.568Z,56.20
2019-03-08T06:11:12.829Z,56.20
2019-03-08T06:11:44.082Z,56.20
2019-03-08T06:12:15.262Z,56.20
2019-03-08T06:12:46.443Z,56.20
2019-03-08T06:13:17.618Z,56.20
2019-03-08T06:13:48.871Z,56.10
2019-03-08T06:14:20.047Z,56.80
2019-03-08T06:14:51.487Z,56.20
2019-03-08T06:15:23.048Z,56.10
2019-03-08T06:15:54.251Z,56.80
2019-03-08T06:16:25.435Z,56.20
2019-03-08T06:16:56.612Z,56.20
2019-03-08T06:17:27.788Z,56.20
2019-03-08T06:17:59.323Z,56.20
2019-03-08T06:18:30.571Z,56.20
2019-03-08T06:19:02.092Z,56.80
2019-03-08T06:19:33.283Z,56.20
2019-03-08T06:20:04.460Z,56.20
2019-03-08T06:20:35.968Z,56.20
2019-03-08T06:21:07.175Z,56.30
2019-03-08T06:21:38.420Z,56.30
2019-03-08T06:22:09.600Z,56.20
2019-03-08T06:22:40.800Z,56.20
2019-03-08T06:23:11.968Z,56.20
2019-03-08T06:23:43.143Z,56.20
2019-03-08T06:24:14.317Z,56.20
2019-03-08T06:24:45.489Z,56.20
2019-03-08T06:25:16.666Z,56.20
2019-03-08T06:25:48.233Z,56.10
2019-03-08T06:26:19.796Z,56.10
2019-03-08T06:26:50.981Z,56.20
2019-03-08T06:27:22.151Z,56.20
2019-03-08T06:27:53.335Z,56.20
2019-03-08T06:28:24.521Z,56.10
2019-03-08T06:28:56.018Z,56.20
2019-03-08T06:29:27.201Z,56.10
2019-03-08T06:29:58.686Z,56.10
2019-03-08T06:30:29.882Z,56.10
2019-03-08T06:31:01.090Z,56.20
2019-03-08T06:31:32.623Z,56.20
2019-03-08T06:32:04.197Z,56.20
2019-03-08T06:32:35.382Z,56.20
2019-03-08T06:33:06.644Z,56.20
2019-03-08T06:33:37.820Z,56.20
2019-03-08T06:34:08.994Z,56.30
2019-03-08T06:34:40.240Z,56.30
2019-03-08T06:35:11.727Z,56.20
2019-03-08T06:35:42.899Z,56.30
2019-03-08T06:36:14.411Z,56.30
2019-03-08T06:36:45.643Z,56.30
2019-03-08T06:37:16.827Z,56.30
2019-03-08T06:37:48.367Z,56.30
2019-03-08T06:38:19.543Z,56.30
2019-03-08T06:38:50.753Z,56.40
2019-03-08T06:39:21.932Z,56.30
2019-03-08T06:39:53.108Z,56.50
2019-03-08T06:40:24.560Z,56.40
2019-03-08T06:40:55.880Z,56.60
2019-03-08T06:41:27.083Z,56.60
2019-03-08T06:41:58.251Z,56.60
2019-03-08T06:42:29.432Z,56.60
2019-03-08T06:43:00.604Z,56.60